createdAt,value
2017-05-09T03:00:27.229Z,19.8
2017-05-09T03:00:52.793Z,19.8
2017-05-09T03:01:18.346Z,19.83
2017-05-09T03:01:43.910Z,19.8
2017-05-09T03:02:09.474Z,19.8
2017-05-09T03:02:35.040Z,19.83
2017-05-09T03:03:00.617Z,19.8
2017-05-09T03:03:26.192Z,19.87
2017-05-09T03:03:51.842Z,19.86
2017-05-09T03:04:17.531Z,19.8
2017-05-09T03:04:43.120Z,19.73
2017-05-09T03:05:08.680Z,19.79
2017-05-09T03:05:34.239Z,19.87
2017-05-09T03:05:59.927Z,19.79
2017-05-09T03:06:25.504Z,19.78
2017-05-09T03:06:51.072Z,19.8
2017-05-09T03:07:16.628Z,19.83
2017-05-09T03:07:42.184Z,19.83
2017-05-09T03:08:07.751Z,19.8
2017-05-09T03:08:33.344Z,19.83
2017-05-09T03:08:58.904Z,19.83
2017-05-09T03:09:24.555Z,19.88
2017-05-09T03:09:50.113Z,19.78
2017-05-09T03:10:15.690Z,19.8
2017-05-09T03:10:41.353Z,19.86
2017-05-09T03:11:06.962Z,19.84
2017-05-09T03:11:32.530Z,19.8
2017-05-09T03:11:58.092Z,19.83
2017-05-09T03:12:23.669Z,19.83
2017-05-09T03:12:49.243Z,19.79
2017-05-09T03:13:14.802Z,19.79
2017-05-09T03:13:40.362Z,19.84
2017-05-09T03:14:05.933Z,19.8
2017-05-09T03:14:31.580Z,19.78
2017-05-09T03:14:57.154Z,19.84
2017-05-09T03:15:22.712Z,19.79
2017-05-09T03:15:48.270Z,19.76
2017-05-09T03:16:13.838Z,19.78
2017-05-09T03:16:39.414Z,19.83
2017-05-09T03:17:04.973Z,19.8
2017-05-09T03:17:30.554Z,19.79
2017-05-09T03:17:56.134Z,19.78
2017-05-09T03:18:21.693Z,19.79
2017-05-09T03:18:47.256Z,19.8
2017-05-09T03:19:12.823Z,19.8
2017-05-09T03:19:38.533Z,19.79
2017-05-09T03:20:04.134Z,19.8
2017-05-09T03:20:29.703Z,19.78
2017-05-09T03:20:55.272Z,19.75
2017-05-09T03:21:20.832Z,19.8
2017-05-09T03:21:46.396Z,19.73
2017-05-09T03:22:11.948Z,19.83
2017-05-09T03:22:37.497Z,19.76
2017-05-09T03:23:03.049Z,19.78
2017-05-09T03:23:28.615Z,19.7
2017-05-09T03:23:54.141Z,19.76
2017-05-09T03:24:19.710Z,19.78
2017-05-09T03:24:45.300Z,19.8
2017-05-09T03:25:10.872Z,19.78
2017-05-09T03:25:36.460Z,19.79
2017-05-09T03:26:02.043Z,19.8
2017-05-09T03:26:27.598Z,19.79
2017-05-09T03:26:53.141Z,19.75
2017-05-09T03:27:18.796Z,19.78
2017-05-09T03:27:44.360Z,19.76
2017-05-09T03:28:09.925Z,19.7
2017-05-09T03:28:35.495Z,19.75
2017-05-09T03:29:01.050Z,19.78
2017-05-09T03:29:26.601Z,19.7
2017-05-09T03:29:52.184Z,19.78
2017-05-09T03:30:17.761Z,19.76
2017-05-09T03:30:43.301Z,19.72
2017-05-09T03:31:09.031Z,19.73
2017-05-09T03:31:34.613Z,19.79
2017-05-09T03:32:00.180Z,19.73
2017-05-09T03:32:25.824Z,19.76
2017-05-09T03:32:51.377Z,19.66
2017-05-09T03:33:16.945Z,19.78
2017-05-09T03:33:42.502Z,19.68
2017-05-09T03:34:08.072Z,19.76
2017-05-09T03:34:33.645Z,19.68
2017-05-09T03:34:59.235Z,19.69
2017-05-09T03:35:24.871Z,19.73
2017-05-09T03:35:50.457Z,19.68
2017-05-09T03:36:16.051Z,19.63
2017-05-09T03:36:41.619Z,19.75
2017-05-09T03:37:07.201Z,19.76
2017-05-09T03:37:32.772Z,19.72
2017-05-09T03:37:58.383Z,19.63
2017-05-09T03:38:23.932Z,19.66
2017-05-09T03:38:49.584Z,19.66
2017-05-09T03:39:15.169Z,19.68
2017-05-09T03:39:40.729Z,19.69
2017-05-09T03:40:06.294Z,19.69
2017-05-09T03:40:31.955Z,19.68
2017-05-09T03:40:57.543Z,19.69
2017-05-09T03:41:23.114Z,19.63
2017-05-09T03:41:48.683Z,19.63
2017-05-09T03:42:14.262Z,19.66
2017-05-09T03:42:39.813Z,19.7
2017-05-09T03:43:05.378Z,19.75
2017-05-09T03:43:30.958Z,19.69
2017-05-09T03:43:56.519Z,19.66
2017-05-09T03:44:22.146Z,19.69
2017-05-09T03:44:47.702Z,19.69
2017-05-09T03:45:13.274Z,19.61
2017-05-09T03:45:38.853Z,19.69
2017-05-09T03:46:04.430Z,19.68
2017-05-09T03:46:30.000Z,19.69
2017-05-09T03:46:55.564Z,19.66
2017-05-09T03:47:21.153Z,19.69
2017-05-09T03:47:46.741Z,19.66
2017-05-09T03:48:12.310Z,19.66
2017-05-09T03:48:37.843Z,19.66
2017-05-09T03:49:03.381Z,19.65
2017-05-09T03:49:28.949Z,19.69
2017-05-09T03:49:54.498Z,19.66
2017-05-09T03:50:20.142Z,19.66
2017-05-09T03:50:45.692Z,19.69
2017-05-09T03:51:11.252Z,19.7
2017-05-09T03:51:36.995Z,19.69
2017-05-09T03:52:02.529Z,19.63
2017-05-09T03:52:28.112Z,19.66
2017-05-09T03:52:53.665Z,19.66
2017-05-09T03:53:19.207Z,19.68
2017-05-09T03:53:44.741Z,19.66
2017-05-09T03:54:10.365Z,19.69
2017-05-09T03:54:35.942Z,19.69
2017-05-09T03:55:01.505Z,19.69
2017-05-09T03:55:27.104Z,19.68
2017-05-09T03:55:52.662Z,19.65
2017-05-09T03:56:18.277Z,19.68
2017-05-09T03:56:43.842Z,19.66
2017-05-09T03:57:09.461Z,19.7
2017-05-09T03:57:35.025Z,19.69
2017-05-09T03:58:00.708Z,19.66
2017-05-09T03:58:26.273Z,19.69
2017-05-09T03:58:51.827Z,19.66
2017-05-09T03:59:17.397Z,19.66
2017-05-09T03:59:42.948Z,19.69
2017-05-09T04:00:08.493Z,19.6
2017-05-09T04:00:34.063Z,19.68
2017-05-09T04:00:59.621Z,19.66
2017-05-09T04:01:25.183Z,19.61
2017-05-09T04:01:50.763Z,19.66
2017-05-09T04:02:16.351Z,19.66
2017-05-09T04:02:41.922Z,19.73
2017-05-09T04:03:07.515Z,19.66
2017-05-09T04:03:33.060Z,19.66
2017-05-09T04:03:58.612Z,19.69
2017-05-09T04:04:24.233Z,19.7
2017-05-09T04:04:49.785Z,19.68
2017-05-09T04:05:15.353Z,19.75
2017-05-09T04:05:41.052Z,19.63
2017-05-09T04:06:06.610Z,19.65
2017-05-09T04:06:32.180Z,19.7
2017-05-09T04:06:57.764Z,19.68
2017-05-09T04:07:23.320Z,19.66
2017-05-09T04:07:48.904Z,19.57
2017-05-09T04:08:14.453Z,19.65
2017-05-09T04:08:40.034Z,19.65
2017-05-09T04:09:05.603Z,19.66
2017-05-09T04:09:31.214Z,19.78
2017-05-09T04:09:56.775Z,19.63
2017-05-09T04:10:22.339Z,19.7
2017-05-09T04:10:48.020Z,19.68
2017-05-09T04:11:13.573Z,19.7
2017-05-09T04:11:39.139Z,19.65
2017-05-09T04:12:04.695Z,19.72
2017-05-09T04:12:30.286Z,19.68
2017-05-09T04:12:55.861Z,19.68
2017-05-09T04:13:21.412Z,19.72
2017-05-09T04:13:46.970Z,19.66
2017-05-09T04:14:12.705Z,19.6
2017-05-09T04:14:38.278Z,19.68
2017-05-09T04:15:03.856Z,19.68
2017-05-09T04:15:29.411Z,19.73
2017-05-09T04:15:54.957Z,19.69
2017-05-09T04:16:20.520Z,19.58
2017-05-09T04:16:46.080Z,19.69
2017-05-09T04:17:11.753Z,19.66
2017-05-09T04:17:37.323Z,19.57
2017-05-09T04:18:02.869Z,19.69
2017-05-09T04:18:28.495Z,19.68
2017-05-09T04:18:53.984Z,19.72
2017-05-09T04:19:19.557Z,19.69
2017-05-09T04:19:45.110Z,19.63
2017-05-09T04:20:10.673Z,19.65
2017-05-09T04:20:36.245Z,19.73
2017-05-09T04:21:01.823Z,19.68
2017-05-09T04:21:27.382Z,19.7
2017-05-09T04:21:52.960Z,19.69
2017-05-09T04:22:18.522Z,19.69
2017-05-09T04:22:44.100Z,19.66
2017-05-09T04:23:09.662Z,19.65
2017-05-09T04:23:35.233Z,19.66
2017-05-09T04:24:00.788Z,19.63
2017-05-09T04:24:26.344Z,19.68
2017-05-09T04:24:52.113Z,19.66
2017-05-09T04:25:17.670Z,19.68
2017-05-09T04:25:43.229Z,19.65
2017-05-09T04:26:08.921Z,19.68
2017-05-09T04:26:34.485Z,19.65
2017-05-09T04:27:00.063Z,19.69
2017-05-09T04:27:25.737Z,19.58
2017-05-09T04:27:51.293Z,19.69
2017-05-09T04:28:16.852Z,19.63
2017-05-09T04:28:42.400Z,19.68
2017-05-09T04:29:07.967Z,19.65
2017-05-09T04:29:33.523Z,19.65
2017-05-09T04:29:59.094Z,19.63
2017-05-09T04:30:24.663Z,19.78
2017-05-09T04:30:50.222Z,19.66
2017-05-09T04:31:15.812Z,19.65
2017-05-09T04:31:41.363Z,19.63
2017-05-09T04:32:06.933Z,19.65
2017-05-09T04:32:32.487Z,19.66
2017-05-09T04:32:58.048Z,19.65
2017-05-09T04:33:23.699Z,19.66
2017-05-09T04:33:49.254Z,19.55
2017-05-09T04:34:14.842Z,19.54
2017-05-09T04:34:40.402Z,19.61
2017-05-09T04:35:05.966Z,19.6
2017-05-09T04:35:31.519Z,19.66
2017-05-09T04:35:57.081Z,19.6
2017-05-09T04:36:22.656Z,19.65
2017-05-09T04:36:48.217Z,19.61
2017-05-09T04:37:13.804Z,19.68
2017-05-09T04:37:39.402Z,19.58
2017-05-09T04:38:04.974Z,19.65
2017-05-09T04:38:30.545Z,19.61
2017-05-09T04:38:56.963Z,19.63
2017-05-09T04:39:22.542Z,19.61
2017-05-09T04:39:48.102Z,19.55
2017-05-09T04:40:13.661Z,19.61
2017-05-09T04:40:39.207Z,19.68
2017-05-09T04:41:04.821Z,19.55
2017-05-09T04:41:30.410Z,19.66
2017-05-09T04:41:55.994Z,19.61
2017-05-09T04:42:21.561Z,19.61
2017-05-09T04:42:47.130Z,19.6
2017-05-09T04:43:12.701Z,19.63
2017-05-09T04:43:38.256Z,19.63
2017-05-09T04:44:03.831Z,19.58
2017-05-09T04:44:29.402Z,19.6
2017-05-09T04:44:54.946Z,19.61
2017-05-09T04:45:20.538Z,19.66
2017-05-09T04:45:46.082Z,19.6
2017-05-09T04:46:11.655Z,19.55
2017-05-09T04:46:37.339Z,19.61
2017-05-09T04:47:02.893Z,19.55
2017-05-09T04:47:28.492Z,19.6
2017-05-09T04:47:54.064Z,19.68
2017-05-09T04:48:19.623Z,19.66
2017-05-09T04:48:45.180Z,19.66
2017-05-09T04:49:10.748Z,19.6
2017-05-09T04:49:36.297Z,19.6
2017-05-09T04:50:01.881Z,19.6
2017-05-09T04:50:27.443Z,19.66
2017-05-09T04:50:52.994Z,19.61
2017-05-09T04:51:18.574Z,19.61
2017-05-09T04:51:44.182Z,19.57
2017-05-09T04:52:09.730Z,19.57
2017-05-09T04:52:35.290Z,19.63
2017-05-09T04:53:00.856Z,19.65
2017-05-09T04:53:26.410Z,19.57
2017-05-09T04:53:51.974Z,19.54
2017-05-09T04:54:17.531Z,19.57
2017-05-09T04:54:43.085Z,19.63
2017-05-09T04:55:08.654Z,19.51
2017-05-09T04:55:34.355Z,19.51
2017-05-09T04:55:59.931Z,19.58
2017-05-09T04:56:25.687Z,19.6
2017-05-09T04:56:51.274Z,19.51
2017-05-09T04:57:16.844Z,19.5
2017-05-09T04:57:42.399Z,19.55
2017-05-09T04:58:08.061Z,19.57
2017-05-09T04:58:33.625Z,19.51
2017-05-09T04:58:59.165Z,19.58
2017-05-09T04:59:24.788Z,19.57
2017-05-09T04:59:50.365Z,19.54
2017-05-09T05:00:15.928Z,19.55
2017-05-09T05:00:41.494Z,19.51
2017-05-09T05:01:07.058Z,19.51
2017-05-09T05:01:32.700Z,19.55
2017-05-09T05:01:58.273Z,19.57
2017-05-09T05:02:23.828Z,19.6
2017-05-09T05:02:49.392Z,19.51
2017-05-09T05:03:14.979Z,19.53
2017-05-09T05:03:40.547Z,19.54
2017-05-09T05:04:06.116Z,19.55
2017-05-09T05:04:31.710Z,19.54
2017-05-09T05:04:57.270Z,19.48
2017-05-09T05:05:22.860Z,19.48
2017-05-09T05:05:48.428Z,19.54
2017-05-09T05:06:13.986Z,19.54
2017-05-09T05:06:39.553Z,19.51
2017-05-09T05:07:05.124Z,19.58
2017-05-09T05:07:30.683Z,19.6
2017-05-09T05:07:56.248Z,19.5
2017-05-09T05:08:21.827Z,19.54
2017-05-09T05:08:47.392Z,19.47
2017-05-09T05:09:13.007Z,19.54
2017-05-09T05:09:38.567Z,19.55
2017-05-09T05:10:04.123Z,19.47
2017-05-09T05:10:29.784Z,19.51
2017-05-09T05:10:55.364Z,19.51
2017-05-09T05:11:20.953Z,19.54
2017-05-09T05:11:46.534Z,19.5
2017-05-09T05:12:12.092Z,19.47
2017-05-09T05:12:37.651Z,19.51
2017-05-09T05:13:03.224Z,19.54
2017-05-09T05:13:28.782Z,19.53
2017-05-09T05:13:54.353Z,19.53
2017-05-09T05:14:19.902Z,19.48
2017-05-09T05:14:45.580Z,19.47
2017-05-09T05:15:11.134Z,19.46
2017-05-09T05:15:36.691Z,19.46
2017-05-09T05:16:02.357Z,19.54
2017-05-09T05:16:27.904Z,19.46
2017-05-09T05:16:53.463Z,19.53
2017-05-09T05:17:19.031Z,19.48
2017-05-09T05:17:44.603Z,19.47
2017-05-09T05:18:10.173Z,19.51
2017-05-09T05:18:35.737Z,19.51
2017-05-09T05:19:01.304Z,19.47
2017-05-09T05:19:27.004Z,19.48
2017-05-09T05:19:52.577Z,19.5
2017-05-09T05:20:18.144Z,19.48
2017-05-09T05:20:43.832Z,19.47
2017-05-09T05:21:09.444Z,19.48
2017-05-09T05:21:35.093Z,19.51
2017-05-09T05:22:00.645Z,19.48
2017-05-09T05:22:26.220Z,19.55
2017-05-09T05:22:51.792Z,19.48
2017-05-09T05:23:17.362Z,19.48
2017-05-09T05:23:42.961Z,19.51
2017-05-09T05:24:08.528Z,19.42
2017-05-09T05:24:34.093Z,19.53
2017-05-09T05:24:59.663Z,19.46
2017-05-09T05:25:25.248Z,19.47
2017-05-09T05:25:50.825Z,19.48
2017-05-09T05:26:16.393Z,19.48
2017-05-09T05:26:41.965Z,19.5
2017-05-09T05:27:07.532Z,19.42
2017-05-09T05:27:33.137Z,19.51
2017-05-09T05:27:58.710Z,19.47
2017-05-09T05:28:24.284Z,19.43
2017-05-09T05:28:49.890Z,19.5
2017-05-09T05:29:15.563Z,19.5
2017-05-09T05:29:41.133Z,19.5
2017-05-09T05:30:06.714Z,19.48
2017-05-09T05:30:32.257Z,19.48
2017-05-09T05:30:57.823Z,19.51
2017-05-09T05:31:23.391Z,19.5
2017-05-09T05:31:48.988Z,19.48
2017-05-09T05:32:14.526Z,19.43
2017-05-09T05:32:40.189Z,19.47
2017-05-09T05:33:05.730Z,19.48
2017-05-09T05:33:31.306Z,19.46
2017-05-09T05:33:56.905Z,19.43
2017-05-09T05:34:22.503Z,19.43
2017-05-09T05:34:48.133Z,19.46
2017-05-09T05:35:13.718Z,19.48
2017-05-09T05:35:39.365Z,19.47
2017-05-09T05:36:04.941Z,19.46
2017-05-09T05:36:30.523Z,19.42
2017-05-09T05:36:56.084Z,19.48
2017-05-09T05:37:21.653Z,19.46
2017-05-09T05:37:47.232Z,19.39
2017-05-09T05:38:12.826Z,19.5
2017-05-09T05:38:38.403Z,19.47
2017-05-09T05:39:03.973Z,19.5
2017-05-09T05:39:29.533Z,19.46
2017-05-09T05:39:55.111Z,19.33
2017-05-09T05:40:20.703Z,19.48
2017-05-09T05:40:46.280Z,19.43
2017-05-09T05:41:11.873Z,19.4
2017-05-09T05:41:37.446Z,19.43
2017-05-09T05:42:03.124Z,19.43
2017-05-09T05:42:28.701Z,19.43
2017-05-09T05:42:54.299Z,19.46
2017-05-09T05:43:19.907Z,19.4
2017-05-09T05:43:45.484Z,19.46
2017-05-09T05:44:11.059Z,19.46
2017-05-09T05:44:36.727Z,19.46
2017-05-09T05:45:02.343Z,19.46
2017-05-09T05:45:27.914Z,19.39
2017-05-09T05:45:53.538Z,19.5
2017-05-09T05:46:19.226Z,19.46
2017-05-09T05:46:44.776Z,19.48
2017-05-09T05:47:10.319Z,19.5
2017-05-09T05:47:35.934Z,19.43
2017-05-09T05:48:01.473Z,19.42
2017-05-09T05:48:27.097Z,19.43
2017-05-09T05:48:52.654Z,19.53
2017-05-09T05:49:18.216Z,19.5
2017-05-09T05:49:43.774Z,19.46
2017-05-09T05:50:09.481Z,19.43
2017-05-09T05:50:35.148Z,19.46
2017-05-09T05:51:00.723Z,19.38
2017-05-09T05:51:26.285Z,19.46
2017-05-09T05:51:51.910Z,19.46
2017-05-09T05:52:17.500Z,19.53
2017-05-09T05:52:43.055Z,19.5
2017-05-09T05:53:08.632Z,19.48
2017-05-09T05:53:34.200Z,19.42
2017-05-09T05:53:59.741Z,19.51
2017-05-09T05:54:25.310Z,19.42
2017-05-09T05:54:50.871Z,19.42
2017-05-09T05:55:16.438Z,19.46
2017-05-09T05:55:42.066Z,19.4
2017-05-09T05:56:07.612Z,19.47
2017-05-09T05:56:33.170Z,19.47
2017-05-09T05:56:58.720Z,19.47
2017-05-09T05:57:24.281Z,19.5
2017-05-09T05:57:49.829Z,19.48
2017-05-09T05:58:15.512Z,19.53
2017-05-09T05:58:41.067Z,19.46
2017-05-09T05:59:06.712Z,19.46
2017-05-09T05:59:32.330Z,19.48
2017-05-09T05:59:57.877Z,19.48
2017-05-09T06:01:01.372Z,19.47
2017-05-09T06:01:26.926Z,19.43
2017-05-09T06:01:52.480Z,19.51
2017-05-09T06:02:18.076Z,19.47
2017-05-09T06:02:43.639Z,19.51
2017-05-09T06:03:09.212Z,19.51
2017-05-09T06:03:34.919Z,19.47
2017-05-09T06:04:00.526Z,19.53
2017-05-09T06:04:26.085Z,19.53
2017-05-09T06:04:51.751Z,19.5
2017-05-09T06:05:17.316Z,19.47
2017-05-09T06:05:42.896Z,19.48
2017-05-09T06:06:08.585Z,19.53
2017-05-09T06:06:34.168Z,19.48
2017-05-09T06:06:59.784Z,19.5
2017-05-09T06:07:25.328Z,19.51
2017-05-09T06:07:50.902Z,19.5
2017-05-09T06:08:16.488Z,19.53
2017-05-09T06:08:42.065Z,19.5
2017-05-09T06:09:07.665Z,19.48
2017-05-09T06:09:33.236Z,19.43
2017-05-09T06:09:58.843Z,19.4
2017-05-09T06:10:24.412Z,19.42
2017-05-09T06:10:50.117Z,19.46
2017-05-09T06:11:15.712Z,19.48
2017-05-09T06:11:41.288Z,19.46
2017-05-09T06:12:06.852Z,19.4
2017-05-09T06:12:32.512Z,19.47
2017-05-09T06:12:58.066Z,19.47
2017-05-09T06:13:23.737Z,19.4
2017-05-09T06:13:49.309Z,19.43
2017-05-09T06:14:14.880Z,19.36
2017-05-09T06:14:40.475Z,19.43
2017-05-09T06:15:05.994Z,19.36
2017-05-09T06:15:31.619Z,19.47
2017-05-09T06:15:57.187Z,19.47
2017-05-09T06:16:22.739Z,19.43
2017-05-09T06:16:48.287Z,19.43
2017-05-09T06:17:13.842Z,19.43
2017-05-09T06:17:39.523Z,19.46
2017-05-09T06:18:05.093Z,19.43
2017-05-09T06:18:30.650Z,19.48
2017-05-09T06:18:56.313Z,19.5
2017-05-09T06:19:21.892Z,19.5
2017-05-09T06:19:47.448Z,19.51
2017-05-09T06:20:13.018Z,19.48
2017-05-09T06:20:38.588Z,19.46
2017-05-09T06:21:04.152Z,19.47
2017-05-09T06:21:29.725Z,19.5
2017-05-09T06:21:55.301Z,19.46
2017-05-09T06:22:20.914Z,19.47
2017-05-09T06:22:46.470Z,19.47
2017-05-09T06:23:12.034Z,19.48
2017-05-09T06:23:37.585Z,19.43
2017-05-09T06:24:03.156Z,19.47
2017-05-09T06:24:28.744Z,19.42
2017-05-09T06:24:54.311Z,19.48
2017-05-09T06:25:19.887Z,19.46
2017-05-09T06:25:45.438Z,19.39
2017-05-09T06:26:11.010Z,19.46
2017-05-09T06:26:36.560Z,19.42
2017-05-09T06:27:02.132Z,19.48
2017-05-09T06:27:27.698Z,19.39
2017-05-09T06:27:53.253Z,19.46
2017-05-09T06:28:18.801Z,19.47
2017-05-09T06:28:44.423Z,19.46
2017-05-09T06:29:09.975Z,19.46
2017-05-09T06:29:35.535Z,19.46
2017-05-09T06:30:01.241Z,19.48
2017-05-09T06:30:26.801Z,19.42
2017-05-09T06:30:52.340Z,19.47
2017-05-09T06:31:17.899Z,19.46
2017-05-09T06:31:43.440Z,19.51
2017-05-09T06:32:09.002Z,19.4
2017-05-09T06:32:34.560Z,19.48
2017-05-09T06:33:00.130Z,19.42
2017-05-09T06:33:25.685Z,19.46
2017-05-09T06:33:51.366Z,19.47
2017-05-09T06:34:16.910Z,19.42
2017-05-09T06:34:42.481Z,19.46
2017-05-09T06:35:08.040Z,19.48
2017-05-09T06:35:33.582Z,19.46
2017-05-09T06:35:59.212Z,19.48
2017-05-09T06:36:24.770Z,19.47
2017-05-09T06:36:50.320Z,19.43
2017-05-09T06:37:15.881Z,19.46
2017-05-09T06:37:41.456Z,19.46
2017-05-09T06:38:07.062Z,19.48
2017-05-09T06:38:32.613Z,19.51
2017-05-09T06:38:58.169Z,19.47
2017-05-09T06:39:23.738Z,19.43
2017-05-09T06:39:49.330Z,19.47
2017-05-09T06:40:14.883Z,19.48
2017-05-09T06:40:40.431Z,19.51
2017-05-09T06:41:06.070Z,19.47
2017-05-09T06:41:31.601Z,19.46
2017-05-09T06:41:57.170Z,19.43
2017-05-09T06:42:22.700Z,19.48
2017-05-09T06:42:48.250Z,19.47
2017-05-09T06:43:13.802Z,19.47
2017-05-09T06:43:39.383Z,19.46
2017-05-09T06:44:04.973Z,19.48
2017-05-09T06:44:30.534Z,19.43
2017-05-09T06:44:56.180Z,19.47
2017-05-09T06:45:21.739Z,19.38
2017-05-09T06:45:47.296Z,19.46
2017-05-09T06:46:12.870Z,19.5
2017-05-09T06:46:38.423Z,19.47
2017-05-09T06:47:03.978Z,19.42
2017-05-09T06:47:29.547Z,19.51
2017-05-09T06:47:55.114Z,19.43
2017-05-09T06:48:20.670Z,19.51
2017-05-09T06:48:46.237Z,19.51
2017-05-09T06:49:11.817Z,19.43
2017-05-09T06:49:37.449Z,19.5
2017-05-09T06:50:03.020Z,19.51
2017-05-09T06:50:28.629Z,19.39
2017-05-09T06:50:54.234Z,19.47
2017-05-09T06:51:19.790Z,19.47
2017-05-09T06:51:45.346Z,19.48
2017-05-09T06:52:10.914Z,19.46
2017-05-09T06:52:36.500Z,19.47
2017-05-09T06:53:02.065Z,19.47
2017-05-09T06:53:27.642Z,19.51
2017-05-09T06:53:53.195Z,19.48
2017-05-09T06:54:18.767Z,19.48
2017-05-09T06:54:44.432Z,19.5
2017-05-09T06:55:09.993Z,19.5
2017-05-09T06:55:35.573Z,19.5
2017-05-09T06:56:01.143Z,19.43
2017-05-09T06:56:26.701Z,19.42
2017-05-09T06:56:52.258Z,19.47
2017-05-09T06:57:17.818Z,19.46
2017-05-09T06:57:43.372Z,19.43
2017-05-09T06:58:08.956Z,19.42
2017-05-09T06:58:34.536Z,19.51
2017-05-09T06:59:00.094Z,19.46
2017-05-09T06:59:25.683Z,19.53
2017-05-09T06:59:51.258Z,19.43
2017-05-09T07:00:16.847Z,19.51
2017-05-09T07:00:42.526Z,19.48
2017-05-09T07:01:08.080Z,19.47
2017-05-09T07:01:33.636Z,19.47
2017-05-09T07:01:59.230Z,19.43
2017-05-09T07:02:24.772Z,19.46
2017-05-09T07:02:50.320Z,19.48
2017-05-09T07:03:15.940Z,19.42
2017-05-09T07:03:41.541Z,19.51
2017-05-09T07:04:07.103Z,19.5
2017-05-09T07:04:32.758Z,19.47
2017-05-09T07:04:58.413Z,19.46
2017-05-09T07:05:23.986Z,19.53
2017-05-09T07:05:49.563Z,19.42
2017-05-09T07:06:15.123Z,19.5
2017-05-09T07:06:40.696Z,19.38
2017-05-09T07:07:06.280Z,19.43
2017-05-09T07:07:31.924Z,19.48
2017-05-09T07:07:57.578Z,19.46
2017-05-09T07:08:23.145Z,19.47
2017-05-09T07:08:48.822Z,19.46
2017-05-09T07:09:14.381Z,19.43
2017-05-09T07:09:39.942Z,19.47
2017-05-09T07:10:05.554Z,19.38
2017-05-09T07:10:31.246Z,19.47
2017-05-09T07:10:56.790Z,19.4
2017-05-09T07:11:22.345Z,19.43
2017-05-09T07:11:47.947Z,19.5
2017-05-09T07:12:13.529Z,19.46
2017-05-09T07:12:39.089Z,19.48
2017-05-09T07:13:04.640Z,19.46
2017-05-09T07:13:30.190Z,19.47
2017-05-09T07:13:55.812Z,19.46
2017-05-09T07:14:21.395Z,19.51
2017-05-09T07:14:46.958Z,19.36
2017-05-09T07:15:12.622Z,19.48
2017-05-09T07:15:38.169Z,19.48
2017-05-09T07:16:03.732Z,19.47
2017-05-09T07:16:29.274Z,19.46
2017-05-09T07:16:54.930Z,19.43
2017-05-09T07:17:20.491Z,19.47
2017-05-09T07:17:46.052Z,19.46
2017-05-09T07:18:11.602Z,19.48
2017-05-09T07:18:37.180Z,19.48
2017-05-09T07:19:02.790Z,19.47
2017-05-09T07:19:28.370Z,19.46
2017-05-09T07:19:53.921Z,19.48
2017-05-09T07:20:19.470Z,19.51
2017-05-09T07:20:45.132Z,19.47
2017-05-09T07:21:10.686Z,19.51
2017-05-09T07:21:36.258Z,19.43
2017-05-09T07:22:01.851Z,19.43
2017-05-09T07:22:27.424Z,19.43
2017-05-09T07:22:52.993Z,19.43
2017-05-09T07:23:18.541Z,19.43
2017-05-09T07:23:44.099Z,19.46
2017-05-09T07:24:09.673Z,19.51
2017-05-09T07:24:35.328Z,19.46
2017-05-09T07:25:00.909Z,19.43
2017-05-09T07:25:26.473Z,19.47
2017-05-09T07:25:52.038Z,19.39
2017-05-09T07:26:17.596Z,19.5
2017-05-09T07:26:43.158Z,19.43
2017-05-09T07:27:08.721Z,19.51
2017-05-09T07:27:34.277Z,19.47
2017-05-09T07:27:59.837Z,19.42
2017-05-09T07:28:25.400Z,19.46
2017-05-09T07:28:50.975Z,19.47
2017-05-09T07:29:16.561Z,19.5
2017-05-09T07:29:42.123Z,19.53
2017-05-09T07:30:07.680Z,19.4
2017-05-09T07:30:33.279Z,19.46
2017-05-09T07:30:58.841Z,19.5
2017-05-09T07:31:24.427Z,19.42
2017-05-09T07:31:50.003Z,19.43
2017-05-09T07:32:15.562Z,19.46
2017-05-09T07:32:41.126Z,19.4
2017-05-09T07:33:06.672Z,19.39
2017-05-09T07:33:32.241Z,19.46
2017-05-09T07:33:57.780Z,19.42
2017-05-09T07:34:23.375Z,19.43
2017-05-09T07:34:48.934Z,19.39
2017-05-09T07:35:14.509Z,19.46
2017-05-09T07:35:40.072Z,19.5
2017-05-09T07:36:05.629Z,19.47
2017-05-09T07:36:31.210Z,19.38
2017-05-09T07:36:56.756Z,19.5
2017-05-09T07:37:22.304Z,19.43
2017-05-09T07:37:47.864Z,19.4
2017-05-09T07:38:13.417Z,19.42
2017-05-09T07:38:38.979Z,19.35
2017-05-09T07:39:04.563Z,19.4
2017-05-09T07:39:30.222Z,19.4
2017-05-09T07:39:55.778Z,19.36
2017-05-09T07:40:21.392Z,19.5
2017-05-09T07:40:46.969Z,19.46
2017-05-09T07:41:12.511Z,19.48
2017-05-09T07:41:38.047Z,19.48
2017-05-09T07:42:03.621Z,19.51
2017-05-09T07:42:29.199Z,19.47
2017-05-09T07:42:54.782Z,19.48
2017-05-09T07:43:20.344Z,19.42
2017-05-09T07:43:45.871Z,19.43
2017-05-09T07:44:11.442Z,19.48
2017-05-09T07:44:36.987Z,19.42
2017-05-09T07:45:02.548Z,19.5
2017-05-09T07:45:28.099Z,19.43
2017-05-09T07:45:53.655Z,19.4
2017-05-09T07:46:19.217Z,19.53
2017-05-09T07:46:44.759Z,19.42
2017-05-09T07:47:10.331Z,19.46
2017-05-09T07:47:35.903Z,19.5
2017-05-09T07:48:01.481Z,19.48
2017-05-09T07:48:27.107Z,19.47
2017-05-09T07:48:52.695Z,19.47
2017-05-09T07:49:18.266Z,19.46
2017-05-09T07:49:43.821Z,19.47
2017-05-09T07:50:09.376Z,19.48
2017-05-09T07:50:34.929Z,19.5
2017-05-09T07:51:00.486Z,19.5
2017-05-09T07:51:26.052Z,19.47
2017-05-09T07:51:51.610Z,19.42
2017-05-09T07:52:17.378Z,19.42
2017-05-09T07:52:42.942Z,19.35
2017-05-09T07:53:08.536Z,19.48
2017-05-09T07:53:34.101Z,19.43
2017-05-09T07:53:59.684Z,19.48
2017-05-09T07:54:25.262Z,19.5
2017-05-09T07:54:50.843Z,19.48
2017-05-09T07:55:16.392Z,19.36
2017-05-09T07:55:41.944Z,19.43
2017-05-09T07:56:07.636Z,19.51
2017-05-09T07:56:33.189Z,19.43
2017-05-09T07:56:58.750Z,19.48
2017-05-09T07:57:24.321Z,19.38
2017-05-09T07:57:49.876Z,19.36
2017-05-09T07:58:15.422Z,19.42
2017-05-09T07:58:41.011Z,19.51
2017-05-09T07:59:06.574Z,19.5
2017-05-09T07:59:32.142Z,19.48
2017-05-09T07:59:57.807Z,19.38
2017-05-09T08:00:23.373Z,19.47
2017-05-09T08:00:48.941Z,19.46
2017-05-09T08:01:14.510Z,19.48
2017-05-09T08:01:40.233Z,19.42
2017-05-09T08:02:05.791Z,19.39
2017-05-09T08:02:31.341Z,19.38
2017-05-09T08:02:56.925Z,19.5
2017-05-09T08:03:22.541Z,19.43
2017-05-09T08:03:48.137Z,19.4
2017-05-09T08:04:13.738Z,19.47
2017-05-09T08:04:39.328Z,19.5
2017-05-09T08:05:04.920Z,19.53
2017-05-09T08:05:30.487Z,19.43
2017-05-09T08:05:56.067Z,19.46
2017-05-09T08:06:21.632Z,19.43
2017-05-09T08:06:47.222Z,19.39
2017-05-09T08:07:12.799Z,19.38
2017-05-09T08:07:38.359Z,19.42
2017-05-09T08:08:03.931Z,19.4
2017-05-09T08:08:29.508Z,19.33
2017-05-09T08:08:55.084Z,19.42
2017-05-09T08:09:20.659Z,19.47
2017-05-09T08:09:46.255Z,19.5
2017-05-09T08:10:11.810Z,19.43
2017-05-09T08:10:37.434Z,19.47
2017-05-09T08:11:25.661Z,19.42
2017-05-09T08:11:51.212Z,19.39
2017-05-09T08:12:16.748Z,19.4
2017-05-09T08:12:42.333Z,19.46
2017-05-09T08:13:07.879Z,19.46
2017-05-09T08:13:33.460Z,19.42
2017-05-09T08:13:59.001Z,19.4
2017-05-09T08:14:24.542Z,19.38
2017-05-09T08:14:50.109Z,19.42
2017-05-09T08:15:15.670Z,19.33
2017-05-09T08:15:41.233Z,19.42
2017-05-09T08:16:06.803Z,19.39
2017-05-09T08:16:32.358Z,19.43
2017-05-09T08:16:58.020Z,19.42
2017-05-09T08:17:23.557Z,19.42
2017-05-09T08:17:49.103Z,19.39
2017-05-09T08:18:14.649Z,19.35
2017-05-09T08:18:40.191Z,19.4
2017-05-09T08:19:05.729Z,19.42
2017-05-09T08:19:31.318Z,19.35
2017-05-09T08:19:56.859Z,19.46
2017-05-09T08:20:22.446Z,19.43
2017-05-09T08:20:48.104Z,19.43
2017-05-09T08:21:13.660Z,19.42
2017-05-09T08:21:39.209Z,19.42
2017-05-09T08:22:04.766Z,19.4
2017-05-09T08:22:30.308Z,19.42
2017-05-09T08:22:55.912Z,19.48
2017-05-09T08:23:21.452Z,19.48
2017-05-09T08:23:47.044Z,19.32
2017-05-09T08:24:45.476Z,19.43
2017-05-09T08:25:11.029Z,19.43
2017-05-09T08:25:36.583Z,19.4
2017-05-09T08:26:02.253Z,19.46
2017-05-09T08:26:27.807Z,19.39
2017-05-09T08:26:53.348Z,19.39
2017-05-09T08:27:18.935Z,19.46
2017-05-09T08:27:44.522Z,19.31
2017-05-09T08:28:10.072Z,19.46
2017-05-09T08:28:35.602Z,19.38
2017-05-09T08:29:01.149Z,19.33
2017-05-09T08:29:26.789Z,19.39
2017-05-09T08:29:52.352Z,19.4
2017-05-09T08:30:17.897Z,19.36
2017-05-09T08:30:43.457Z,19.32
2017-05-09T08:31:08.999Z,19.33
2017-05-09T08:31:34.540Z,19.38
2017-05-09T08:32:00.173Z,19.4
2017-05-09T08:32:25.802Z,19.33
2017-05-09T08:32:51.353Z,19.4